Time;durP1;ratioP1;P1;durP2;ratioP2;P2;SDS_P1;SDS_P2;PMS_P1;PMS_P2;Temp;Humidity;BMP_temperature;BMP_pressure;BME280_temperature;BME280_humidity;BME280_pressure;Samples;Min_cycle;Max_cycle;Signal;HPM_P1;HPM_P2
2022/05/13 00:01:49;;;;;;;5.38;1.50;;;;;;;12.98;60.23;101666.81;7392388;19;20018;-60
2022/05/13 00:04:19;;;;;;;9.25;1.75;;;;;;;12.98;59.67;101662.41;7390794;19;20129;-60
2022/05/13 00:06:48;;;;;;;5.78;1.80;;;;;;;12.92;60.12;101660.06;7392730;19;20010;-60
2022/05/13 00:09:21;;;;;;;7.05;1.90;;;;;;;12.92;59.80;101662.69;7391298;19;20025;-59
2022/05/13 00:11:50;;;;;;;4.20;1.65;;;;;;;12.91;59.99;101658.34;7392381;19;20022;-60
2022/05/13 00:14:19;;;;;;;4.55;2.00;;;;;;;12.81;60.15;101660.47;7391893;19;20025;-60
2022/05/13 00:16:48;;;;;;;6.78;1.75;;;;;;;12.69;60.47;101660.94;7392341;19;20022;-60
2022/05/13 00:19:17;;;;;;;8.13;2.17;;;;;;;12.90;60.23;101663.66;7389789;19;20378;-59
2022/05/13 00:21:46;;;;;;;8.02;3.50;;;;;;;12.64;60.88;101645.38;7391969;19;20011;-62
2022/05/13 00:24:15;;;;;;;8.23;2.60;;;;;;;12.60;61.11;101661.31;7392877;19;20022;-60
2022/05/13 00:26:47;;;;;;;7.65;2.25;;;;;;;12.72;60.97;101652.09;7388631;19;20015;-60
2022/05/13 00:29:16;;;;;;;6.30;2.10;;;;;;;12.75;60.85;101662.47;7392794;19;20019;-59
2022/05/13 00:31:45;;;;;;;8.02;2.20;;;;;;;12.80;60.53;101653.50;7394335;19;20014;-62
2022/05/13 00:34:14;;;;;;;6.85;2.33;;;;;;;12.76;61.08;101653.69;7394389;19;20021;-60
2022/05/13 00:36:43;;;;;;;7.47;1.88;;;;;;;12.70;60.47;101653.94;7392739;19;20360;-61
2022/05/13 00:39:12;;;;;;;7.68;1.70;;;;;;;12.64;60.41;101648.00;7392493;19;20034;-60
2022/05/13 00:41:46;;;;;;;6.90;2.38;;;;;;;12.57;60.91;101650.94;7391087;19;20022;-61
2022/05/13 00:44:16;;;;;;;6.38;1.85;;;;;;;12.67;60.67;101647.03;7392155;19;20019;-61
2022/05/13 00:46:45;;;;;;;6.95;2.05;;;;;;;12.50;61.31;101650.31;7389672;19;20021;-61
2022/05/13 00:49:18;;;;;;;7.00;2.45;;;;;;;12.52;61.36;101640.59;7389396;19;20419;-61
2022/05/13 00:51:50;;;;;;;8.55;2.20;;;;;;;12.45;61.36;101642.63;7390101;19;20011;-60
2022/05/13 00:54:19;;;;;;;8.82;2.55;;;;;;;12.45;61.53;101634.72;7391028;19;20025;-61
2022/05/13 00:56:51;;;;;;;5.55;1.80;;;;;;;12.48;61.35;101635.50;7390462;19;20014;-61
2022/05/13 00:59:23;;;;;;;6.63;2.33;;;;;;;12.46;61.93;101635.56;7389203;19;20026;-61
2022/05/13 01:01:52;;;;;;;5.88;1.92;;;;;;;12.66;60.96;101632.16;7391194;19;20026;-60
2022/05/13 01:04:22;;;;;;;6.45;2.10;;;;;;;12.38;61.96;101633.25;7389888;19;20014;-61
2022/05/13 01:06:56;;;;;;;6.47;2.55;;;;;;;12.45;62.12;101631.22;7388431;19;20018;-61
2022/05/13 01:09:28;;;;;;;4.75;1.90;;;;;;;12.45;61.86;101639.09;7388961;19;20052;-61
2022/05/13 01:12:01;;;;;;;7.72;2.33;;;;;;;12.37;62.33;101628.91;7390752;19;20021;-60
2022/05/13 01:14:34;;;;;;;5.63;2.40;;;;;;;12.25;62.71;101634.63;7390341;19;20434;-61
2022/05/13 01:20:08;;;;;;;7.40;2.13;;;;;;;12.52;62.18;101634.47;7387765;19;20075;-61
2022/05/13 01:22:44;;;;;;;7.32;1.92;;;;;;;12.25;63.34;101637.25;7389618;19;20033;-61
2022/05/13 01:25:16;;;;;;;8.20;2.30;;;;;;;12.03;63.74;101629.34;7389465;19;20025;-61
2022/05/13 01:27:47;;;;;;;6.88;2.22;;;;;;;12.00;64.11;101629.44;7390107;19;20022;-61
2022/05/13 01:30:20;;;;;;;9.18;2.50;;;;;;;12.19;63.58;101630.47;7388431;19;20022;-61
2022/05/13 01:32:49;;;;;;;7.95;2.40;;;;;;;12.22;63.72;101630.34;7390166;19;20034;-59
2022/05/13 01:35:18;;;;;;;5.95;2.28;;;;;;;12.05;64.43;101631.00;7390448;19;20015;-60
2022/05/13 01:37:50;;;;;;;9.27;2.65;;;;;;;12.19;63.95;101634.88;7389876;19;20023;-61
2022/05/13 01:40:19;;;;;;;10.30;3.30;;;;;;;12.10;64.57;101638.69;7396175;19;20018;-61
2022/05/13 01:42:48;;;;;;;9.15;2.50;;;;;;;12.14;64.09;101632.41;7398164;19;20550;-61
2022/05/13 01:45:18;;;;;;;8.25;3.00;;;;;;;11.83;64.81;101640.53;7396855;19;20018;-60
2022/05/13 01:47:47;;;;;;;7.70;3.00;;;;;;;12.00;65.08;101645.22;7397414;19;20059;-59
2022/05/13 01:50:17;;;;;;;9.45;2.80;;;;;;;11.81;65.46;101642.38;7394076;19;20018;-61
2022/05/13 01:52:48;;;;;;;10.32;2.38;;;;;;;12.02;64.35;101639.00;7397019;19;20022;-58
2022/05/13 01:55:17;;;;;;;10.57;2.58;;;;;;;11.94;65.21;101654.19;7397280;19;20025;-61
2022/05/13 01:57:46;;;;;;;9.27;2.47;;;;;;;11.64;66.15;101646.44;7396378;19;20014;-61
2022/05/13 02:00:16;;;;;;;6.07;2.70;;;;;;;11.72;66.01;101638.28;7392769;19;20043;-61
2022/05/13 02:05:27;;;;;;;11.05;3.00;;;;;;;11.94;65.50;101641.88;7393470;19;20029;-61
2022/05/13 02:07:58;;;;;;;9.90;2.92;;;;;;;12.10;64.96;101641.31;7396160;19;20034;-61
2022/05/13 02:10:28;;;;;;;10.82;2.95;;;;;;;11.96;66.09;101646.22;7396490;19;20049;-61
2022/05/13 02:12:57;;;;;;;7.93;2.75;;;;;;;11.92;66.07;101638.44;7396642;19;20017;-61
2022/05/13 02:15:26;;;;;;;8.23;2.80;;;;;;;11.82;66.09;101639.69;7396515;19;20018;-61
2022/05/13 02:17:55;;;;;;;10.13;2.45;;;;;;;11.94;66.36;101630.53;7396296;19;20006;-61
2022/05/13 02:20:24;;;;;;;9.85;2.80;;;;;;;12.10;65.62;101625.56;7395258;19;20018;-61
2022/05/13 02:22:53;;;;;;;6.15;2.50;;;;;;;11.84;66.40;101637.84;7396316;19;20017;-61
2022/05/13 02:25:25;;;;;;;9.75;3.35;;;;;;;11.95;66.12;101634.88;7395862;19;20018;-61
2022/05/13 02:27:54;;;;;;;8.45;2.58;;;;;;;11.77;66.50;101633.75;7396075;19;20049;-60
2022/05/13 02:30:23;;;;;;;8.90;2.72;;;;;;;11.71;66.96;101626.94;7395558;19;20025;-60
2022/05/13 02:32:53;;;;;;;7.10;2.97;;;;;;;11.69;67.66;101627.91;7396609;19;20019;-60
2022/05/13 02:35:22;;;;;;;8.13;3.00;;;;;;;11.91;66.66;101623.59;7396901;19;20475;-61
2022/05/13 02:37:52;;;;;;;8.95;3.20;;;;;;;11.56;67.48;101632.72;7395617;19;20020;-60
2022/05/13 02:41:11;;;;;;;8.57;3.15;;;;;;;11.60;67.98;101624.72;7395069;19;20015;-63
2022/05/13 02:43:14;;;;;;;10.07;3.10;;;;;;;11.68;68.12;101626.22;7394682;19;20025;-60
2022/05/13 02:45:46;;;;;;;11.27;3.22;;;;;;;11.82;67.44;101626.56;7395218;19;20472;-62
2022/05/13 02:48:15;;;;;;;9.57;2.85;;;;;;;11.90;67.32;101619.25;7394520;19;20018;-60
2022/05/13 02:50:44;;;;;;;13.75;3.53;;;;;;;11.59;68.39;101623.00;7393335;19;20022;-61
2022/05/13 02:53:13;;;;;;;10.43;3.22;;;;;;;11.62;68.68;101618.53;7394975;19;20361;-64
2022/05/13 02:55:42;;;;;;;12.30;3.30;;;;;;;11.91;67.77;101622.75;7394800;19;20018;-61
2022/05/13 02:58:13;;;;;;;10.43;3.38;;;;;;;12.02;67.80;101622.34;7394207;19;20026;-60
2022/05/13 03:00:44;;;;;;;11.25;3.38;;;;;;;11.74;69.10;101629.44;7394250;19;20019;-60
2022/05/13 03:03:14;;;;;;;8.80;3.28;;;;;;;11.81;69.02;101634.50;7394641;19;20343;-61
2022/05/13 03:05:43;;;;;;;10.05;3.72;;;;;;;11.85;69.36;101625.56;7394241;19;20011;-61
2022/05/13 03:08:13;;;;;;;12.85;3.65;;;;;;;11.59;69.98;101622.13;7393824;19;20111;-61
2022/05/13 03:10:42;;;;;;;20.17;4.32;;;;;;;11.75;70.48;101625.06;7393586;19;20018;-61
2022/05/13 03:13:14;;;;;;;12.07;4.43;;;;;;;11.55;71.31;101620.53;7393945;19;20030;-60
2022/05/13 03:15:43;;;;;;;11.73;5.13;;;;;;;11.69;70.97;101613.03;7394319;19;20029;-60
2022/05/13 03:18:12;;;;;;;17.02;4.05;;;;;;;11.87;70.76;101613.25;7393712;19;20018;-60
2022/05/13 03:20:42;;;;;;;14.77;4.35;;;;;;;11.80;70.69;101599.50;7393191;19;20018;-61
2022/05/13 03:23:11;;;;;;;12.32;4.57;;;;;;;11.64;71.45;101609.69;7393305;19;20014;-61
2022/05/13 03:25:40;;;;;;;13.90;4.53;;;;;;;11.83;70.62;101601.16;7393717;19;20014;-61
2022/05/13 03:28:10;;;;;;;17.38;4.80;;;;;;;11.70;71.50;101600.75;7392733;19;20022;-61
2022/05/13 03:30:43;;;;;;;12.23;4.60;;;;;;;11.73;71.60;101601.50;7392573;19;20018;-60
2022/05/13 03:33:12;;;;;;;17.25;4.90;;;;;;;11.82;71.71;101602.94;7393068;19;20520;-60
2022/05/13 03:35:41;;;;;;;13.40;5.25;;;;;;;11.76;72.62;101605.75;7393555;19;20029;-60
2022/05/13 03:38:10;;;;;;;15.68;5.57;;;;;;;11.55;73.08;101603.00;7392597;19;20697;-60
2022/05/13 03:40:39;;;;;;;19.38;5.00;;;;;;;11.70;72.53;101619.13;7391205;19;20019;-65
2022/05/13 03:43:09;;;;;;;13.23;4.82;;;;;;;11.63;73.67;101621.09;7396331;19;20370;-63
2022/05/13 03:45:37;;;;;;;16.42;5.60;;;;;;;11.74;72.92;101602.34;7392477;19;20014;-64
2022/05/13 03:48:10;;;;;;;15.40;5.47;;;;;;;11.73;73.37;101611.13;7391916;19;20010;-64
2022/05/13 03:50:42;;;;;;;15.20;6.18;;;;;;;11.76;73.30;101617.13;7390674;19;20388;-64
2022/05/13 03:53:11;;;;;;;18.38;6.05;;;;;;;11.76;73.59;101624.13;7390852;19;20023;-64
2022/05/13 03:55:41;;;;;;;13.70;5.82;;;;;;;11.77;73.59;101616.22;7391855;19;20018;-64
2022/05/13 03:58:10;;;;;;;18.98;7.13;;;;;;;11.67;73.90;101617.47;7392723;19;20011;-64
2022/05/13 04:00:39;;;;;;;17.38;6.22;;;;;;;11.89;73.32;101619.28;7390326;19;20019;-65
2022/05/13 04:03:11;;;;;;;14.85;5.90;;;;;;;11.90;73.30;101607.88;7391259;19;20018;-64
2022/05/13 04:11:03;;;;;;;19.38;6.50;;;;;;;11.75;74.72;101615.41;7390221;19;20327;-64
2022/05/13 04:16:13;;;;;;;16.17;6.68;;;;;;;11.60;75.26;101623.84;7391907;19;20018;-64
2022/05/13 04:18:47;;;;;;;15.45;6.60;;;;;;;11.62;75.59;101623.78;7391918;19;20014;-65
2022/05/13 04:21:18;;;;;;;24.88;7.38;;;;;;;11.86;74.50;101622.91;7390126;19;20011;-64
2022/05/13 04:23:51;;;;;;;20.52;6.35;;;;;;;11.75;74.88;101635.56;7392124;19;20354;-64
2022/05/13 04:26:21;;;;;;;17.55;6.95;;;;;;;11.55;76.16;101633.66;7391097;19;20014;-64
2022/05/13 04:28:52;;;;;;;15.85;6.95;;;;;;;11.56;76.22;101636.22;7391155;19;20082;-64
2022/05/13 04:31:23;;;;;;;15.07;6.20;;;;;;;11.63;75.86;101634.22;7389927;19;20420;-64
2022/05/13 04:33:56;;;;;;;19.30;7.15;;;;;;;11.47;76.53;101633.06;7390880;19;20026;-64
2022/05/13 04:36:26;;;;;;;16.75;7.28;;;;;;;11.51;76.80;101630.28;7390736;19;20344;-64
2022/05/13 04:38:56;;;;;;;19.85;6.80;;;;;;;11.67;76.23;101635.84;7390443;19;20006;-64
2022/05/13 04:44:09;;;;;;;19.58;7.38;;;;;;;11.80;76.19;101633.63;7391890;19;20528;-65
2022/05/13 04:46:39;;;;;;;17.02;6.57;;;;;;;11.74;75.95;101642.59;7390187;19;20061;-64
2022/05/13 04:49:11;;;;;;;18.10;7.00;;;;;;;11.40;77.84;101637.66;7389439;19;20542;-65
2022/05/13 04:51:40;;;;;;;15.98;6.82;;;;;;;11.53;77.28;101648.59;7389621;19;20041;-63
2022/05/13 04:54:10;;;;;;;17.00;7.22;;;;;;;11.43;78.06;101656.81;7390361;19;20010;-63
2022/05/13 04:56:39;;;;;;;17.10;7.40;;;;;;;11.42;78.21;101662.09;7390460;19;20086;-64
2022/05/13 04:59:08;;;;;;;16.08;6.82;;;;;;;11.57;77.64;101664.16;7391265;19;20034;-64
2022/05/13 05:01:38;;;;;;;19.52;8.00;;;;;;;11.62;77.54;101663.16;7390029;19;20018;-64
2022/05/13 05:04:10;;;;;;;21.17;7.53;;;;;;;11.38;78.55;101663.13;7390114;19;20033;-64
2022/05/13 05:06:41;;;;;;;17.35;7.90;;;;;;;11.51;78.50;101663.56;7389889;19;20022;-64
2022/05/13 05:09:10;;;;;;;18.73;8.38;;;;;;;11.45;79.06;101674.25;7389393;19;20031;-65
2022/05/13 05:11:39;;;;;;;23.42;9.88;;;;;;;11.50;79.03;101677.56;7387396;19;20025;-64
2022/05/13 05:14:08;;;;;;;26.30;9.13;;;;;;;11.62;78.20;101679.78;7389727;19;20077;-64
2022/05/13 05:16:36;;;;;;;26.13;8.48;;;;;;;11.24;80.46;101681.94;7389493;19;20025;-64
2022/05/13 05:19:06;;;;;;;19.55;8.57;;;;;;;11.33;80.27;101691.25;7388812;19;20029;-65
2022/05/13 05:21:37;;;;;;;18.75;9.27;;;;;;;11.42;80.11;101694.44;7388275;19;20022;-64
2022/05/13 05:24:07;;;;;;;23.20;9.85;;;;;;;11.48;79.94;101696.00;7389176;19;20051;-65
2022/05/13 05:26:36;;;;;;;21.70;9.93;;;;;;;11.43;80.38;101695.28;7389171;19;20025;-64
2022/05/13 05:29:05;;;;;;;25.05;9.68;;;;;;;11.73;79.26;101695.16;7388460;19;20014;-64
2022/05/13 05:31:34;;;;;;;22.70;9.52;;;;;;;11.72;79.72;101694.31;7386400;19;20021;-64
2022/05/13 05:34:03;;;;;;;28.60;10.45;;;;;;;11.93;78.97;101694.44;7389604;19;20041;-65
2022/05/13 05:36:32;;;;;;;20.15;9.80;;;;;;;12.02;78.40;101696.78;7387694;19;20022;-64
2022/05/13 05:39:03;;;;;;;23.05;10.10;;;;;;;12.09;78.06;101707.91;7389602;19;20041;-65
2022/05/13 05:41:32;;;;;;;27.92;10.23;;;;;;;12.03;78.72;101701.09;7388105;19;20027;-64
2022/05/13 05:44:01;;;;;;;25.27;10.05;;;;;;;11.78;79.46;101701.94;7389877;19;20535;-63
2022/05/13 05:46:30;;;;;;;24.65;10.38;;;;;;;11.90;79.78;101708.53;7390794;19;20474;-63
2022/05/13 05:48:59;;;;;;;26.88;10.63;;;;;;;11.73;80.83;101714.41;7391667;19;20003;-64
2022/05/13 05:51:28;;;;;;;25.50;10.48;;;;;;;11.87;80.26;101720.94;7388230;19;20029;-64
2022/05/13 05:59:24;;;;;;;22.90;11.27;;;;;;;11.84;81.01;101719.25;7388261;19;20496;-64
2022/05/13 06:01:53;;;;;;;25.48;11.05;;;;;;;11.96;81.03;101725.03;7388243;19;20022;-64
2022/05/13 06:04:22;;;;;;;27.60;11.90;;;;;;;11.85;81.41;101728.88;7390121;19;20022;-64
2022/05/13 06:06:51;;;;;;;24.73;11.52;;;;;;;11.88;81.84;101725.28;7389662;19;20010;-63
2022/05/13 06:09:20;;;;;;;25.42;12.70;;;;;;;12.00;81.63;101738.00;7390706;19;20019;-64
2022/05/13 06:11:52;;;;;;;24.23;11.73;;;;;;;12.12;80.95;101728.81;7388532;19;20057;-65
2022/05/13 06:14:20;;;;;;;24.60;12.02;;;;;;;12.09;80.95;101735.06;7389246;19;20014;-65
2022/05/13 06:16:49;;;;;;;22.45;11.88;;;;;;;12.14;81.54;101728.78;7390415;19;20122;-64
2022/05/13 06:19:18;;;;;;;28.40;11.45;;;;;;;12.05;81.75;101727.31;7389656;19;20061;-64
2022/05/13 06:21:47;;;;;;;24.85;11.15;;;;;;;12.08;81.64;101729.84;7387887;19;20010;-64
2022/05/13 06:24:18;;;;;;;26.60;12.88;;;;;;;12.13;81.27;101737.56;7389534;19;20011;-64
2022/05/13 06:26:48;;;;;;;28.98;13.52;;;;;;;12.40;81.15;101744.44;7394419;19;20018;-65
2022/05/13 06:29:21;;;;;;;32.10;12.63;;;;;;;12.39;81.22;101749.75;7396721;19;20475;-65
2022/05/13 06:31:50;;;;;;;27.63;12.52;;;;;;;12.27;81.75;101748.44;7395719;19;20031;-64
2022/05/13 06:34:21;;;;;;;30.40;12.93;;;;;;;12.36;81.82;101755.97;7398884;19;20432;-64
2022/05/13 06:36:52;;;;;;;30.90;12.23;;;;;;;12.44;81.40;101755.69;7398450;19;20597;-65
2022/05/13 06:39:21;;;;;;;27.35;12.07;;;;;;;12.61;81.33;101761.19;7397188;19;20018;-64
2022/05/13 06:41:50;;;;;;;24.63;11.80;;;;;;;12.63;80.94;101750.59;7395062;19;20026;-63
2022/05/13 06:44:22;;;;;;;23.83;12.43;;;;;;;12.74;80.82;101747.56;7395706;19;20416;-64
2022/05/13 06:46:51;;;;;;;32.33;13.48;;;;;;;12.78;81.27;101752.66;7394671;19;20102;-64
2022/05/13 06:49:20;;;;;;;29.83;12.40;;;;;;;12.95;80.45;101749.38;7395793;19;20026;-63
2022/05/13 06:51:49;;;;;;;28.52;13.00;;;;;;;12.72;81.23;101755.53;7394657;19;20033;-64
2022/05/13 06:54:17;;;;;;;32.67;13.25;;;;;;;12.79;81.14;101754.38;7396183;19;20037;-63
2022/05/13 06:56:48;;;;;;;25.00;12.52;;;;;;;12.98;80.56;101756.25;7397814;19;20697;-65
2022/05/13 06:59:17;;;;;;;23.90;13.25;;;;;;;12.85;80.77;101755.91;7396882;19;20113;-64
2022/05/13 07:01:49;;;;;;;30.75;13.88;;;;;;;12.83;80.90;101759.50;7399085;19;20399;-65
2022/05/13 07:04:18;;;;;;;30.63;13.97;;;;;;;12.92;80.52;101762.66;7396633;19;20018;-65
2022/05/13 07:06:47;;;;;;;29.95;14.35;;;;;;;12.90;80.26;101764.47;7397523;19;20255;-65
2022/05/13 07:09:16;;;;;;;30.02;13.98;;;;;;;13.02;80.03;101764.91;7394982;19;20084;-65
2022/05/13 07:11:45;;;;;;;27.60;13.18;;;;;;;13.08;79.68;101762.91;7394123;19;20475;-64
2022/05/13 07:14:16;;;;;;;30.40;13.98;;;;;;;13.16;79.53;101759.94;7395394;19;20042;-65
2022/05/13 07:16:45;;;;;;;28.17;14.48;;;;;;;13.19;79.50;101764.25;7395315;19;20475;-65
2022/05/13 07:19:16;;;;;;;32.15;14.50;;;;;;;13.25;79.40;101764.84;7394736;19;20722;-65
2022/05/13 07:21:46;;;;;;;73.45;17.75;;;;;;;13.29;78.69;101765.56;7393615;19;20070;-66
2022/05/13 07:24:15;;;;;;;39.58;15.95;;;;;;;13.31;78.71;101761.97;7393737;19;20021;-65
2022/05/13 07:26:44;;;;;;;29.55;14.80;;;;;;;13.46;77.58;101772.81;7394910;19;20382;-66
2022/05/13 07:29:13;;;;;;;28.58;14.63;;;;;;;13.41;77.85;101772.13;7394451;19;20090;-65
2022/05/13 07:31:42;;;;;;;30.15;15.43;;;;;;;13.49;77.64;101773.53;7391899;19;20021;-64
2022/05/13 07:34:11;;;;;;;27.90;15.00;;;;;;;13.24;77.62;101783.31;7393218;19;20479;-65
2022/05/13 07:36:42;;;;;;;30.50;14.70;;;;;;;13.46;76.95;101770.19;7392471;19;20021;-65
2022/05/13 07:41:53;;;;;;;31.98;15.65;;;;;;;13.69;76.73;101768.38;7391132;19;20352;-65
2022/05/13 07:44:22;;;;;;;29.60;13.70;;;;;;;13.67;75.66;101769.28;7393519;19;20082;-65
2022/05/13 07:46:52;;;;;;;24.60;14.00;;;;;;;13.65;75.59;101770.28;7392946;19;20015;-65
2022/05/13 07:49:20;;;;;;;31.80;15.25;;;;;;;13.77;75.86;101772.41;7391919;19;20022;-65
2022/05/13 07:51:52;;;;;;;27.60;14.52;;;;;;;13.56;74.88;101770.66;7393060;19;20018;-65
2022/05/13 07:54:22;;;;;;;25.83;12.45;;;;;;;13.68;73.25;101772.78;7394094;19;20082;-66
2022/05/13 07:56:50;;;;;;;21.13;12.98;;;;;;;13.76;73.79;101777.75;7340133;19;190804;-65
2022/05/13 07:59:20;;;;;;;35.70;13.65;;;;;;;13.96;74.30;101790.06;7391727;19;20029;-65
2022/05/13 08:01:49;;;;;;;23.70;14.48;;;;;;;13.95;74.28;101783.06;7390545;19;20078;-66
2022/05/13 08:04:18;;;;;;;24.27;13.75;;;;;;;13.88;74.70;101782.47;7394018;19;20007;-65
2022/05/13 08:06:47;;;;;;;26.15;14.75;;;;;;;13.88;74.36;101789.53;7393645;19;20103;-65
2022/05/13 08:09:18;;;;;;;24.75;14.10;;;;;;;13.69;74.71;101787.66;7390836;19;20100;-65
2022/05/13 08:11:47;;;;;;;25.20;14.98;;;;;;;13.76;74.36;101790.91;7392554;19;20045;-65
2022/05/13 08:14:16;;;;;;;24.00;13.75;;;;;;;13.78;74.30;101786.41;7393400;19;20025;-65
2022/05/13 08:16:45;;;;;;;21.45;13.30;;;;;;;13.70;73.70;101785.88;7392102;19;20007;-66
2022/05/13 08:19:14;;;;;;;27.23;14.48;;;;;;;13.65;73.87;101786.06;7392599;19;20006;-65
2022/05/13 08:21:43;;;;;;;23.30;13.60;;;;;;;13.63;74.33;101788.78;7393168;19;20078;-66
2022/05/13 08:24:12;;;;;;;28.58;13.32;;;;;;;13.51;74.64;101789.31;7394298;19;20330;-65
2022/05/13 08:26:44;;;;;;;26.60;12.88;;;;;;;13.61;74.49;101797.66;7394123;19;20038;-65
2022/05/13 08:29:13;;;;;;;25.55;12.20;;;;;;;13.80;73.81;101795.13;7391561;19;20414;-66
2022/05/13 08:31:42;;;;;;;20.88;12.07;;;;;;;13.99;73.32;101801.31;7393247;19;20066;-66
2022/05/13 08:34:12;;;;;;;20.88;11.27;;;;;;;14.05;72.50;101794.06;7395613;19;20120;-66
2022/05/13 08:36:42;;;;;;;22.92;12.02;;;;;;;14.19;72.41;101808.34;7396674;19;20015;-64
2022/05/13 08:39:12;;;;;;;18.60;10.85;;;;;;;14.05;72.13;101813.38;7397140;19;20018;-64
2022/05/13 08:42:00;;;;;;;34.38;11.45;;;;;;;13.98;72.19;101825.09;7395246;19;20030;-65
2022/05/13 08:44:29;;;;;;;22.50;10.23;;;;;;;13.92;72.17;101825.38;7400155;19;20039;-66
2022/05/13 08:47:04;;;;;;;21.70;9.23;;;;;;;13.96;72.31;101819.03;7397285;19;20024;-65
2022/05/13 08:49:38;;;;;;;43.30;11.00;;;;;;;13.96;72.79;101819.88;7398340;19;20104;-65
2022/05/13 08:55:01;;;;;;;16.40;9.15;;;;;;;13.96;73.11;101814.63;7396114;19;20369;-64
2022/05/13 08:57:39;;;;;;;19.17;9.45;;;;;;;14.02;72.51;101819.63;7395133;19;20022;-64
2022/05/13 09:00:13;;;;;;;15.60;6.80;;;;;;;14.54;69.02;101823.53;7394173;19;20454;-65
2022/05/13 09:02:46;;;;;;;18.40;7.45;;;;;;;14.68;69.94;101818.53;7391784;19;20003;-65
2022/05/13 09:05:27;;;;;;;13.73;5.10;;;;;;;14.48;66.16;101821.19;7391804;19;20018;-66
2022/05/13 09:07:56;;;;;;;10.88;3.80;;;;;;;14.46;63.48;101818.63;7390785;19;20014;-66
2022/05/13 09:10:28;;;;;;;12.10;2.80;;;;;;;14.46;62.02;101837.06;7391931;19;20029;-66
2022/05/13 09:13:08;;;;;;;10.30;3.08;;;;;;;14.91;60.22;101829.81;7391721;19;20014;-66
2022/05/13 09:15:44;;;;;;;8.32;2.65;;;;;;;14.79;60.08;101833.03;7392518;19;20346;-65
2022/05/13 09:18:20;;;;;;;9.52;2.75;;;;;;;14.96;60.44;101826.94;7393228;19;20487;-66
2022/05/13 09:20:53;;;;;;;9.98;3.00;;;;;;;14.84;60.49;101834.53;7390520;19;20022;-66
2022/05/13 09:23:22;;;;;;;13.02;2.90;;;;;;;14.63;59.97;101830.22;7392590;19;20098;-66
2022/05/13 09:26:03;;;;;;;7.35;2.20;;;;;;;15.00;59.75;101829.41;7391169;19;20015;-68
2022/05/13 09:28:36;;;;;;;5.45;2.30;;;;;;;15.20;57.64;101825.81;7390453;19;20010;-68
2022/05/13 09:31:21;;;;;;;9.63;2.45;;;;;;;15.24;57.85;101834.44;7390688;19;20038;-66
2022/05/13 09:33:50;;;;;;;8.57;2.80;;;;;;;15.08;58.34;101838.75;7391875;19;20471;-66
2022/05/13 09:36:35;;;;;;;11.82;3.08;;;;;;;14.81;58.99;101841.72;7392177;19;20020;-67
2022/05/13 09:39:22;;;;;;;9.18;3.00;;;;;;;15.03;59.35;101847.72;7390304;19;20023;-67
2022/05/13 09:41:52;;;;;;;8.18;3.03;;;;;;;15.20;59.27;101852.22;7388560;19;20028;-62
2022/05/13 09:44:26;;;;;;;5.70;2.70;;;;;;;15.46;58.06;101855.41;7394667;19;20021;-61
2022/05/13 09:47:10;;;;;;;10.35;2.90;;;;;;;15.09;58.45;101840.44;7390746;19;20141;-61
2022/05/13 09:49:43;;;;;;;7.28;2.60;;;;;;;15.33;58.02;101839.28;7388071;19;20014;-61
2022/05/13 09:52:14;;;;;;;8.27;3.22;;;;;;;15.42;57.52;101835.34;7388817;19;20523;-62
2022/05/13 09:54:44;;;;;;;8.00;3.47;;;;;;;15.23;58.34;101838.03;7388777;19;20344;-63
2022/05/13 09:57:16;;;;;;;6.90;3.50;;;;;;;15.20;58.47;101852.22;7390173;19;20364;-64
2022/05/13 09:59:55;;;;;;;8.38;3.00;;;;;;;15.25;58.89;101848.50;7391614;19;20479;-61
2022/05/13 10:02:27;;;;;;;8.02;3.10;;;;;;;15.20;58.39;101841.66;7395927;19;20018;-63
2022/05/13 10:04:58;;;;;;;9.23;3.10;;;;;;;15.24;58.01;101845.00;7398319;19;20324;-62
2022/05/13 10:07:28;;;;;;;13.20;3.60;;;;;;;15.48;57.33;101837.69;7397316;19;20120;-63
2022/05/13 10:15:30;;;;;;;10.55;3.15;;;;;;;15.39;57.89;101832.84;7396582;19;20061;-61
2022/05/13 10:18:05;;;;;;;7.88;3.03;;;;;;;15.17;58.66;101841.81;7396683;19;20014;-62
2022/05/13 10:20:38;;;;;;;33.65;4.72;;;;;;;15.33;60.08;101838.41;7396072;19;20064;-62
2022/05/13 10:23:14;;;;;;;7.70;2.92;;;;;;;15.28;60.67;101832.50;7393902;19;20022;-61
2022/05/13 10:25:53;;;;;;;12.77;2.75;;;;;;;15.13;60.09;101837.59;7397336;19;20490;-60
2022/05/13 10:28:25;;;;;;;11.82;2.40;;;;;;;15.43;58.67;101842.34;7395638;19;20023;-61
2022/05/13 10:31:02;;;;;;;7.05;2.35;;;;;;;15.62;57.50;101850.22;7396131;19;20085;-61
2022/05/13 10:33:36;;;;;;;5.05;2.60;;;;;;;15.53;56.58;101840.97;7396412;19;20030;-61
2022/05/13 10:36:10;;;;;;;5.65;2.13;;;;;;;15.56;56.02;101846.09;7396720;19;20019;-62
2022/05/13 10:38:45;;;;;;;7.32;2.70;;;;;;;15.71;56.19;101848.91;7395843;19;20023;-61
2022/05/13 10:41:25;;;;;;;7.38;2.78;;;;;;;15.56;56.44;101853.16;7394807;19;20103;-62
2022/05/13 10:43:59;;;;;;;7.07;2.40;;;;;;;16.03;54.43;101854.38;7396334;19;20339;-62
2022/05/13 10:46:37;;;;;;;5.22;2.00;;;;;;;16.56;54.50;101860.47;7396562;19;20401;-61
2022/05/13 10:49:06;;;;;;;8.52;2.50;;;;;;;16.49;53.68;101853.81;7394590;19;20025;-64
2022/05/13 10:51:42;;;;;;;7.03;1.95;;;;;;;16.57;53.61;101860.41;7394390;19;20030;-62
2022/05/13 10:54:34;;;;;;;5.13;1.80;;;;;;;16.80;50.91;101860.13;7395859;19;20350;-62
2022/05/13 10:57:14;;;;;;;7.45;1.88;;;;;;;16.90;50.87;101858.72;7395433;19;20014;-61
2022/05/13 11:00:02;;;;;;;9.93;2.22;;;;;;;17.19;50.87;101856.25;7396737;19;20026;-62
2022/05/13 11:02:49;;;;;;;7.13;2.35;;;;;;;16.92;50.76;101856.81;7393854;19;20340;-61
2022/05/13 11:05:48;;;;;;;9.00;2.25;;;;;;;16.44;52.09;101854.91;7394988;19;20261;-61
2022/05/13 11:08:21;;;;;;;10.40;2.40;;;;;;;16.34;53.11;101851.03;7395076;19;20010;-61
2022/05/13 11:11:03;;;;;;;4.50;2.00;;;;;;;16.44;53.41;101856.69;7394192;19;20487;-61
2022/05/13 11:13:48;;;;;;;8.75;2.40;;;;;;;16.30;53.66;101857.41;7395276;19;20455;-61
2022/05/13 11:16:27;;;;;;;5.63;1.80;;;;;;;16.83;52.42;101860.78;7395215;19;20011;-62
2022/05/13 11:19:09;;;;;;;6.40;2.10;;;;;;;17.27;51.48;101851.38;7394512;19;20038;-62
2022/05/13 11:21:45;;;;;;;18.03;3.07;;;;;;;16.71;52.26;101854.38;7393637;19;20018;-61
2022/05/13 11:27:14;;;;;;;6.38;2.03;;;;;;;17.50;49.89;101854.53;7395756;19;20010;-62
2022/05/13 11:29:47;;;;;;;31.80;4.03;;;;;;;17.50;49.96;101865.13;7393108;19;20474;-63
2022/05/13 11:32:24;;;;;;;9.82;2.17;;;;;;;17.86;49.05;101851.53;7393800;19;20359;-62
2022/05/13 11:35:29;;;;;;;6.20;1.90;;;;;;;17.79;48.94;101847.53;7394918;19;20021;-63
2022/05/13 11:38:05;;;;;;;9.13;2.20;;;;;;;17.15;50.40;101858.22;7395007;19;20023;-63
2022/05/13 11:40:43;;;;;;;8.48;1.92;;;;;;;16.79;51.07;101856.59;7394842;19;20021;-63
2022/05/13 11:43:42;;;;;;;7.00;1.80;;;;;;;16.95;50.51;101862.81;7393455;19;20018;-63
2022/05/13 11:46:26;;;;;;;14.73;2.95;;;;;;;16.69;50.94;101858.03;7395151;19;20035;-63
2022/05/13 11:48:59;;;;;;;6.55;2.20;;;;;;;16.80;50.75;101862.78;7396329;19;20018;-63
2022/05/13 11:51:35;;;;;;;6.75;2.25;;;;;;;16.71;51.14;101869.41;7396439;19;20077;-63
2022/05/13 11:54:21;;;;;;;9.35;2.20;;;;;;;17.55;50.53;101866.59;7396470;19;20023;-63
2022/05/13 11:56:50;;;;;;;8.68;2.30;;;;;;;17.04;51.01;101874.69;7395624;19;20014;-62
2022/05/13 11:59:46;;;;;;;5.85;2.03;;;;;;;17.23;52.27;101863.09;7393362;19;20030;-62
2022/05/13 12:02:32;;;;;;;8.90;2.03;;;;;;;16.39;51.05;101846.38;7393184;19;20011;-64
2022/05/13 12:05:26;;;;;;;9.32;2.25;;;;;;;16.85;51.11;101866.88;7394194;19;20024;-65
2022/05/13 12:08:07;;;;;;;6.15;1.80;;;;;;;17.98;49.52;101853.50;7393316;19;20018;-62
2022/05/13 12:10:46;;;;;;;10.65;2.20;;;;;;;17.66;48.83;101857.16;7390221;19;20126;-63
2022/05/13 12:13:27;;;;;;;6.05;1.90;;;;;;;17.16;49.82;101873.16;7391075;19;20010;-62
2022/05/13 12:16:12;;;;;;;9.60;1.95;;;;;;;17.04;50.53;101879.16;7393837;19;20014;-62
2022/05/13 12:18:51;;;;;;;4.82;1.88;;;;;;;16.95;49.58;101869.91;7395463;19;20479;-62